CCA112 ZSPD-ZSNJ
Flight info
| Callsign | CCA112 |
|---|---|
| Flight time | N/A |
| Altitude | 15700 |
| Route | ZSNJ/07 K0815S0810 ESB71X ESBAG R343 SASAN SAS93A ZSPD/35R |
| Aircraft | A321/L-B5858/L |
Departure
| Time | N/A |
|---|---|
| Airport | Shanghai Pudong International Airport (ZSPD) |
Arrival
| Time | 2026-04-28 16:52 |
|---|---|
| Airport | Nanjing Lukou International Airport (ZSNJ) |
| Time | Latitude | Longitude | Altitude | Speed | Heading |
|---|---|---|---|---|---|
| 2026-04-28 16:52 | 31.72925 | 118.86841 | 53 ft | 0 kts | 329° |
| 2026-04-28 17:01 | 31.72924 | 118.86842 | 53 ft | 1 kts | 329° |
| 2026-04-28 17:01 | 31.72911 | 118.86851 | 53 ft | 2 kts | 329° |
| 2026-04-28 17:01 | 31.72898 | 118.86861 | 53 ft | 2 kts | 329° |
| 2026-04-28 17:02 | 31.72888 | 118.86867 | 53 ft | 0 kts | 329° |
| 2026-04-28 17:02 | 31.72881 | 118.86872 | 53 ft | 2 kts | 318° |
| 2026-04-28 17:02 | 31.72871 | 118.86892 | 53 ft | 2 kts | 284° |
| 2026-04-28 17:02 | 31.72870 | 118.86910 | 53 ft | 2 kts | 259° |
| 2026-04-28 17:03 | 31.72877 | 118.86929 | 53 ft | 1 kts | 237° |
| 2026-04-28 17:03 | 31.72877 | 118.86930 | 53 ft | 0 kts | 237° |
| 2026-04-28 17:05 | 31.72871 | 118.86918 | 53 ft | 3 kts | 237° |
| 2026-04-28 17:05 | 31.72851 | 118.86880 | 53 ft | 6 kts | 239° |
| 2026-04-28 17:05 | 31.72822 | 118.86824 | 53 ft | 9 kts | 239° |
| 2026-04-28 17:06 | 31.72743 | 118.86678 | 53 ft | 9 kts | 238° |
| 2026-04-28 17:06 | 31.72686 | 118.86659 | 53 ft | 10 kts | 164° |
| 2026-04-28 17:06 | 31.72577 | 118.86638 | 53 ft | 9 kts | 166° |
| 2026-04-28 17:07 | 31.72515 | 118.86607 | 53 ft | 11 kts | 235° |
| 2026-04-28 17:07 | 31.72471 | 118.86521 | 53 ft | 13 kts | 238° |
| 2026-04-28 17:07 | 31.72426 | 118.86437 | 53 ft | 14 kts | 238° |
| 2026-04-28 17:07 | 31.72368 | 118.86330 | 53 ft | 16 kts | 238° |
| 2026-04-28 17:08 | 31.72333 | 118.86264 | 53 ft | 17 kts | 238° |
| 2026-04-28 17:08 | 31.72267 | 118.86141 | 53 ft | 18 kts | 237° |
| 2026-04-28 17:08 | 31.72197 | 118.86013 | 53 ft | 19 kts | 238° |
| 2026-04-28 17:08 | 31.72125 | 118.85876 | 53 ft | 20 kts | 239° |
| 2026-04-28 17:09 | 31.72074 | 118.85779 | 53 ft | 20 kts | 238° |
| 2026-04-28 17:09 | 31.71997 | 118.85637 | 53 ft | 20 kts | 238° |
| 2026-04-28 17:09 | 31.71951 | 118.85551 | 53 ft | 0 kts | 238° |
| 2026-04-28 17:09 | 31.71945 | 118.85541 | 53 ft | 4 kts | 238° |
| 2026-04-28 17:10 | 31.71919 | 118.85492 | 53 ft | 9 kts | 238° |
| 2026-04-28 17:10 | 31.71893 | 118.85444 | 53 ft | 11 kts | 238° |
| 2026-04-28 17:10 | 31.71829 | 118.85324 | 53 ft | 14 kts | 238° |
| 2026-04-28 17:10 | 31.71771 | 118.85218 | 53 ft | 16 kts | 238° |
| 2026-04-28 17:11 | 31.71731 | 118.85142 | 53 ft | 16 kts | 238° |
| 2026-04-28 17:11 | 31.71649 | 118.84988 | 53 ft | 16 kts | 238° |
| 2026-04-28 17:11 | 31.71606 | 118.84909 | 53 ft | 15 kts | 237° |
| 2026-04-28 17:11 | 31.71598 | 118.84895 | 53 ft | 0 kts | 237° |